createdAt,value
2023-10-06T00:05:59.829Z,11.30
2023-10-06T00:13:00.519Z,11.30
2023-10-06T00:20:01.410Z,11.30
2023-10-06T00:27:02.139Z,11.30
2023-10-06T00:34:02.773Z,11.20
2023-10-06T00:41:07.925Z,11.20
2023-10-06T00:48:15.601Z,11.20
2023-10-06T00:55:17.428Z,11.20
2023-10-06T01:02:18.165Z,11.20
2023-10-06T01:09:18.596Z,11.10
2023-10-06T01:16:19.310Z,11.10
2023-10-06T01:23:28.806Z,11.00
2023-10-06T01:30:29.443Z,11.00
2023-10-06T01:37:33.739Z,11.00
2023-10-06T01:44:38.287Z,10.90
2023-10-06T01:51:40.058Z,10.90
2023-10-06T01:58:40.447Z,10.90
2023-10-06T02:05:40.940Z,10.90
2023-10-06T02:12:41.352Z,10.80
2023-10-06T02:19:43.199Z,10.80
2023-10-06T02:26:58.409Z,10.80
2023-10-06T02:33:58.930Z,10.70
2023-10-06T02:40:59.268Z,10.70
2023-10-06T02:48:00.347Z,10.70
2023-10-06T02:55:09.991Z,10.70
2023-10-06T03:02:17.115Z,10.60
2023-10-06T03:09:19.649Z,10.60
2023-10-06T03:16:21.340Z,10.50
2023-10-06T03:23:39.853Z,10.50
2023-10-06T03:30:42.747Z,10.50
2023-10-06T03:37:53.624Z,10.50
2023-10-06T03:45:08.547Z,10.40
2023-10-06T03:52:11.300Z,10.40
2023-10-06T03:59:16.603Z,10.40
2023-10-06T04:06:16.974Z,10.40
2023-10-06T04:13:18.427Z,10.30
2023-10-06T04:20:18.661Z,10.40
2023-10-06T04:27:19.644Z,10.30
2023-10-06T04:34:24.061Z,10.30
2023-10-06T04:41:24.253Z,10.30
2023-10-06T04:48:24.739Z,10.30
2023-10-06T04:55:25.317Z,10.20
2023-10-06T05:02:26.030Z,10.20
2023-10-06T05:09:26.363Z,10.20
2023-10-06T05:16:28.602Z,10.10
2023-10-06T05:23:28.983Z,10.10
2023-10-06T05:30:30.612Z,10.10
2023-10-06T05:37:33.279Z,10.00
2023-10-06T05:44:33.389Z,10.00
2023-10-06T05:51:35.045Z,10.00
2023-10-06T05:58:38.147Z,10.00
2023-10-06T06:05:39.931Z,10.00
2023-10-06T06:12:41.963Z,10.00
2023-10-06T06:19:43.236Z,10.00
2023-10-06T06:26:44.524Z,10.00
2023-10-06T06:33:44.931Z,10.10
2023-10-06T06:40:45.210Z,10.20
2023-10-06T06:47:45.978Z,10.30
2023-10-06T06:54:48.160Z,10.40
2023-10-06T07:01:48.953Z,10.50
2023-10-06T07:08:49.270Z,10.70
2023-10-06T07:15:50.666Z,11.00
2023-10-06T07:22:56.006Z,11.20
2023-10-06T07:29:58.379Z,11.50
2023-10-06T07:36:58.507Z,11.90
2023-10-06T07:43:59.044Z,12.10
2023-10-06T07:51:07.614Z,12.30
2023-10-06T07:58:09.491Z,12.50
2023-10-06T08:05:12.478Z,12.70
2023-10-06T08:12:14.753Z,12.80
2023-10-06T08:19:15.200Z,13.00
2023-10-06T08:26:15.596Z,13.10
2023-10-06T08:33:16.176Z,13.20
2023-10-06T08:40:18.320Z,13.40
2023-10-06T08:47:27.966Z,13.60
2023-10-06T08:54:32.373Z,13.80
2023-10-06T09:01:34.013Z,14.10
2023-10-06T09:08:42.516Z,14.30
2023-10-06T09:15:44.509Z,14.60
2023-10-06T09:22:51.501Z,14.90
2023-10-06T09:30:11.729Z,15.10
2023-10-06T09:37:20.026Z,15.40
2023-10-06T09:44:22.067Z,15.60
2023-10-06T09:51:24.610Z,15.90
2023-10-06T09:58:25.521Z,16.10
2023-10-06T10:05:26.287Z,16.30
2023-10-06T10:12:56.591Z,16.60
2023-10-06T10:19:58.024Z,16.90
2023-10-06T10:27:00.387Z,17.20
2023-10-06T10:34:08.144Z,17.40
2023-10-06T10:41:19.377Z,17.70
2023-10-06T10:48:20.090Z,17.90
2023-10-06T10:55:27.745Z,18.00
2023-10-06T11:02:52.055Z,18.20
2023-10-06T11:09:53.485Z,18.30
2023-10-06T11:17:03.806Z,18.40
2023-10-06T11:24:04.228Z,18.50
2023-10-06T11:31:12.357Z,18.60
2023-10-06T11:38:13.875Z,18.80
2023-10-06T11:45:32.681Z,18.90
2023-10-06T11:52:33.549Z,19.00
2023-10-06T11:59:33.844Z,19.10
2023-10-06T12:06:39.190Z,19.30
2023-10-06T12:13:40.262Z,19.40
2023-10-06T12:20:41.456Z,19.50
2023-10-06T12:27:45.715Z,19.60
2023-10-06T12:34:46.587Z,19.70
2023-10-06T12:41:49.744Z,20.00
2023-10-06T12:48:50.242Z,20.30
2023-10-06T12:55:57.947Z,20.40
2023-10-06T13:02:58.467Z,20.20
2023-10-06T13:10:03.016Z,20.00
2023-10-06T13:17:03.737Z,20.20
2023-10-06T13:24:06.602Z,20.70
2023-10-06T13:31:08.827Z,21.10
2023-10-06T13:38:10.916Z,21.60
2023-10-06T13:45:21.551Z,22.20
2023-10-06T13:52:21.627Z,22.50
2023-10-06T13:59:22.794Z,22.90
2023-10-06T14:06:23.432Z,23.10
2023-10-06T14:13:28.906Z,23.10
2023-10-06T14:20:31.046Z,22.90
2023-10-06T14:27:32.479Z,22.90
2023-10-06T14:34:47.506Z,22.80
2023-10-06T14:42:06.396Z,22.60
2023-10-06T14:49:08.556Z,23.00
2023-10-06T14:56:09.097Z,23.40
2023-10-06T15:03:10.133Z,23.40
2023-10-06T15:10:16.837Z,23.40
2023-10-06T15:17:17.582Z,23.30
2023-10-06T15:24:18.501Z,23.20
2023-10-06T15:31:21.501Z,22.60
2023-10-06T15:38:22.476Z,22.00
2023-10-06T15:45:23.551Z,21.60
2023-10-06T15:52:25.135Z,21.20
2023-10-06T15:59:26.239Z,21.10
2023-10-06T16:06:27.269Z,20.90
2023-10-06T16:13:28.296Z,20.80
2023-10-06T16:20:30.488Z,20.50
2023-10-06T16:27:31.046Z,20.30
2023-10-06T16:34:31.700Z,20.20
2023-10-06T16:41:33.780Z,20.00
2023-10-06T16:48:37.294Z,19.80
2023-10-06T16:55:38.875Z,19.50
2023-10-06T17:02:39.758Z,19.30
2023-10-06T17:09:42.289Z,19.20
2023-10-06T17:16:42.872Z,19.00
2023-10-06T17:23:43.936Z,18.90
2023-10-06T17:30:44.153Z,18.80
2023-10-06T17:37:45.011Z,18.70
2023-10-06T17:44:47.266Z,18.50
2023-10-06T17:51:47.931Z,18.40
2023-10-06T17:58:48.658Z,18.20
2023-10-06T18:05:53.330Z,18.10
2023-10-06T18:12:54.381Z,18.00
2023-10-06T18:19:55.018Z,17.90
2023-10-06T18:26:55.922Z,17.80
2023-10-06T18:33:56.061Z,17.70
2023-10-06T18:40:57.332Z,17.50
2023-10-06T18:47:58.304Z,17.40
2023-10-06T18:54:59.130Z,17.30
2023-10-06T19:02:00.395Z,17.20
2023-10-06T19:09:01.163Z,17.10
2023-10-06T19:16:01.780Z,17.00
2023-10-06T19:23:02.017Z,16.90
2023-10-06T19:30:02.525Z,16.80
2023-10-06T19:37:04.054Z,16.70
2023-10-06T19:44:04.592Z,16.60
2023-10-06T19:51:07.556Z,16.50
2023-10-06T19:58:12.276Z,16.40
2023-10-06T20:05:12.756Z,16.30
2023-10-06T20:12:12.939Z,16.20
2023-10-06T20:19:16.825Z,16.10
2023-10-06T20:26:17.074Z,16.10
2023-10-06T20:33:17.793Z,16.00
2023-10-06T20:40:25.564Z,15.90
2023-10-06T20:47:26.239Z,15.90
2023-10-06T20:54:26.462Z,15.80
2023-10-06T21:01:27.003Z,15.70
2023-10-06T21:08:27.933Z,15.70
2023-10-06T21:15:28.628Z,15.70
2023-10-06T21:22:29.866Z,15.50
2023-10-06T21:29:31.129Z,15.40
2023-10-06T21:36:31.710Z,15.20
2023-10-06T21:43:32.401Z,15.00
2023-10-06T21:50:33.111Z,14.90
2023-10-06T21:57:35.884Z,14.70
2023-10-06T22:04:37.369Z,14.60
2023-10-06T22:11:38.538Z,14.40
2023-10-06T22:18:39.152Z,14.30
2023-10-06T22:25:39.560Z,14.20
2023-10-06T22:32:41.774Z,14.10
2023-10-06T22:39:44.295Z,14.00
2023-10-06T22:46:44.754Z,13.80
2023-10-06T22:53:45.480Z,13.80
2023-10-06T23:00:45.584Z,13.70
2023-10-06T23:07:47.918Z,13.50
2023-10-06T23:14:48.862Z,13.50
2023-10-06T23:21:48.962Z,13.40
2023-10-06T23:28:50.349Z,13.30
2023-10-06T23:35:50.464Z,13.20
2023-10-06T23:42:52.094Z,13.10
2023-10-06T23:49:56.420Z,13.10
2023-10-06T23:56:58.284Z,13.00
